sensor_id;sensor_type;location;lat;lon;timestamp;P1;durP1;ratioP1;P2;durP2;ratioP2
24008;SDS011;12217;50.792;4.372;2023-02-01T00:01:35;37.55;;;19.65;;
24008;SDS011;12217;50.792;4.372;2023-02-01T00:04:01;34.88;;;19.55;;
24008;SDS011;12217;50.792;4.372;2023-02-01T00:06:27;44.75;;;19.67;;
24008;SDS011;12217;50.792;4.372;2023-02-01T00:08:53;39.80;;;19.73;;
24008;SDS011;12217;50.792;4.372;2023-02-01T00:11:19;38.78;;;19.40;;
24008;SDS011;12217;50.792;4.372;2023-02-01T00:13:45;36.58;;;19.13;;
24008;SDS011;12217;50.792;4.372;2023-02-01T00:16:16;36.80;;;18.30;;
24008;SDS011;12217;50.792;4.372;2023-02-01T00:18:44;37.47;;;18.33;;
24008;SDS011;12217;50.792;4.372;2023-02-01T00:21:12;37.97;;;18.92;;
24008;SDS011;12217;50.792;4.372;2023-02-01T00:23:38;38.90;;;20.02;;
24008;SDS011;12217;50.792;4.372;2023-02-01T00:26:05;36.35;;;18.55;;
24008;SDS011;12217;50.792;4.372;2023-02-01T00:28:32;34.35;;;18.10;;
24008;SDS011;12217;50.792;4.372;2023-02-01T00:31:02;36.38;;;17.45;;
24008;SDS011;12217;50.792;4.372;2023-02-01T00:33:29;31.95;;;15.73;;
24008;SDS011;12217;50.792;4.372;2023-02-01T00:36:00;35.05;;;16.05;;
24008;SDS011;12217;50.792;4.372;2023-02-01T00:38:27;34.00;;;16.42;;
24008;SDS011;12217;50.792;4.372;2023-02-01T00:40:54;33.97;;;15.00;;
24008;SDS011;12217;50.792;4.372;2023-02-01T00:43:26;33.83;;;15.82;;
24008;SDS011;12217;50.792;4.372;2023-02-01T00:45:51;36.13;;;13.60;;
24008;SDS011;12217;50.792;4.372;2023-02-01T00:48:17;28.38;;;12.20;;
24008;SDS011;12217;50.792;4.372;2023-02-01T00:50:43;30.33;;;11.93;;
24008;SDS011;12217;50.792;4.372;2023-02-01T00:53:11;30.00;;;12.60;;
24008;SDS011;12217;50.792;4.372;2023-02-01T00:55:37;31.90;;;12.52;;
24008;SDS011;12217;50.792;4.372;2023-02-01T00:58:03;28.58;;;12.00;;
24008;SDS011;12217;50.792;4.372;2023-02-01T01:00:31;31.58;;;12.43;;
24008;SDS011;12217;50.792;4.372;2023-02-01T01:02:57;22.73;;;10.68;;
24008;SDS011;12217;50.792;4.372;2023-02-01T01:05:23;27.77;;;10.57;;
24008;SDS011;12217;50.792;4.372;2023-02-01T01:07:49;20.55;;;9.77;;
24008;SDS011;12217;50.792;4.372;2023-02-01T01:10:14;24.90;;;10.70;;
24008;SDS011;12217;50.792;4.372;2023-02-01T01:12:40;26.92;;;9.90;;
24008;SDS011;12217;50.792;4.372;2023-02-01T01:15:06;26.50;;;9.23;;
24008;SDS011;12217;50.792;4.372;2023-02-01T01:17:32;22.35;;;8.25;;
24008;SDS011;12217;50.792;4.372;2023-02-01T01:19:58;25.10;;;8.40;;
24008;SDS011;12217;50.792;4.372;2023-02-01T01:22:23;26.88;;;8.50;;
24008;SDS011;12217;50.792;4.372;2023-02-01T01:24:49;30.35;;;8.52;;
24008;SDS011;12217;50.792;4.372;2023-02-01T01:27:14;26.23;;;7.85;;
24008;SDS011;12217;50.792;4.372;2023-02-01T01:29:40;24.60;;;7.20;;
24008;SDS011;12217;50.792;4.372;2023-02-01T01:32:06;25.55;;;7.10;;
24008;SDS011;12217;50.792;4.372;2023-02-01T01:34:31;26.92;;;6.95;;
24008;SDS011;12217;50.792;4.372;2023-02-01T01:36:57;26.17;;;6.90;;
24008;SDS011;12217;50.792;4.372;2023-02-01T01:39:23;24.13;;;6.03;;
24008;SDS011;12217;50.792;4.372;2023-02-01T01:41:48;18.58;;;6.40;;
24008;SDS011;12217;50.792;4.372;2023-02-01T01:47:17;21.40;;;6.38;;
24008;SDS011;12217;50.792;4.372;2023-02-01T01:49:43;22.40;;;5.70;;
24008;SDS011;12217;50.792;4.372;2023-02-01T01:52:09;27.55;;;6.03;;
24008;SDS011;12217;50.792;4.372;2023-02-01T01:54:39;26.00;;;6.30;;
24008;SDS011;12217;50.792;4.372;2023-02-01T01:59:47;26.63;;;5.82;;
24008;SDS011;12217;50.792;4.372;2023-02-01T02:02:20;22.83;;;5.18;;
24008;SDS011;12217;50.792;4.372;2023-02-01T02:04:46;21.63;;;5.72;;
24008;SDS011;12217;50.792;4.372;2023-02-01T02:07:14;22.80;;;4.97;;
24008;SDS011;12217;50.792;4.372;2023-02-01T02:09:44;28.08;;;5.68;;
24008;SDS011;12217;50.792;4.372;2023-02-01T02:12:09;23.30;;;5.65;;
24008;SDS011;12217;50.792;4.372;2023-02-01T02:14:35;21.35;;;5.47;;
24008;SDS011;12217;50.792;4.372;2023-02-01T02:20:03;25.35;;;5.68;;
24008;SDS011;12217;50.792;4.372;2023-02-01T02:34:34;19.67;;;5.07;;
24008;SDS011;12217;50.792;4.372;2023-02-01T02:43:16;19.38;;;5.25;;
24008;SDS011;12217;50.792;4.372;2023-02-01T02:46:15;19.33;;;5.50;;
24008;SDS011;12217;50.792;4.372;2023-02-01T02:49:12;17.80;;;5.50;;
24008;SDS011;12217;50.792;4.372;2023-02-01T02:54:36;22.02;;;5.32;;
24008;SDS011;12217;50.792;4.372;2023-02-01T02:57:17;24.20;;;5.80;;
24008;SDS011;12217;50.792;4.372;2023-02-01T03:00:09;23.73;;;5.35;;
24008;SDS011;12217;50.792;4.372;2023-02-01T03:02:55;26.15;;;5.65;;
24008;SDS011;12217;50.792;4.372;2023-02-01T03:05:41;20.15;;;4.90;;
24008;SDS011;12217;50.792;4.372;2023-02-01T03:13:26;26.15;;;4.95;;
24008;SDS011;12217;50.792;4.372;2023-02-01T03:18:50;20.83;;;4.32;;
24008;SDS011;12217;50.792;4.372;2023-02-01T03:24:00;18.90;;;4.57;;
24008;SDS011;12217;50.792;4.372;2023-02-01T03:26:30;19.90;;;4.90;;
24008;SDS011;12217;50.792;4.372;2023-02-01T03:29:02;22.90;;;5.13;;
24008;SDS011;12217;50.792;4.372;2023-02-01T03:31:34;18.98;;;4.40;;
24008;SDS011;12217;50.792;4.372;2023-02-01T03:34:00;21.30;;;4.93;;
24008;SDS011;12217;50.792;4.372;2023-02-01T03:36:28;21.25;;;5.07;;
24008;SDS011;12217;50.792;4.372;2023-02-01T03:41:42;27.42;;;4.68;;
24008;SDS011;12217;50.792;4.372;2023-02-01T03:47:20;21.80;;;5.25;;
24008;SDS011;12217;50.792;4.372;2023-02-01T03:49:49;26.85;;;5.18;;
24008;SDS011;12217;50.792;4.372;2023-02-01T03:52:28;21.67;;;4.47;;
24008;SDS011;12217;50.792;4.372;2023-02-01T03:55:07;22.83;;;4.63;;
24008;SDS011;12217;50.792;4.372;2023-02-01T03:57:34;22.92;;;4.80;;
24008;SDS011;12217;50.792;4.372;2023-02-01T04:00:17;19.42;;;4.00;;
24008;SDS011;12217;50.792;4.372;2023-02-01T04:02:47;26.88;;;5.80;;
24008;SDS011;12217;50.792;4.372;2023-02-01T04:05:13;25.13;;;5.15;;
24008;SDS011;12217;50.792;4.372;2023-02-01T04:07:39;20.33;;;4.75;;
24008;SDS011;12217;50.792;4.372;2023-02-01T04:10:06;19.98;;;4.97;;
24008;SDS011;12217;50.792;4.372;2023-02-01T04:12:32;30.58;;;5.28;;
24008;SDS011;12217;50.792;4.372;2023-02-01T04:14:57;23.02;;;5.32;;
24008;SDS011;12217;50.792;4.372;2023-02-01T04:17:23;23.58;;;5.57;;
24008;SDS011;12217;50.792;4.372;2023-02-01T04:19:49;16.35;;;4.60;;
24008;SDS011;12217;50.792;4.372;2023-02-01T04:22:15;19.83;;;5.05;;
24008;SDS011;12217;50.792;4.372;2023-02-01T04:24:40;21.27;;;5.05;;
24008;SDS011;12217;50.792;4.372;2023-02-01T04:27:06;22.60;;;5.22;;
24008;SDS011;12217;50.792;4.372;2023-02-01T04:29:32;19.00;;;4.75;;
24008;SDS011;12217;50.792;4.372;2023-02-01T04:31:58;21.73;;;5.28;;
24008;SDS011;12217;50.792;4.372;2023-02-01T04:34:24;29.58;;;4.68;;
24008;SDS011;12217;50.792;4.372;2023-02-01T04:36:50;23.88;;;4.57;;
24008;SDS011;12217;50.792;4.372;2023-02-01T04:39:16;19.88;;;4.90;;
24008;SDS011;12217;50.792;4.372;2023-02-01T04:41:42;24.13;;;4.55;;
24008;SDS011;12217;50.792;4.372;2023-02-01T04:44:10;24.23;;;5.45;;
24008;SDS011;12217;50.792;4.372;2023-02-01T04:49:05;21.05;;;4.47;;
24008;SDS011;12217;50.792;4.372;2023-02-01T04:51:31;22.42;;;4.60;;
24008;SDS011;12217;50.792;4.372;2023-02-01T04:53:57;24.73;;;5.28;;
24008;SDS011;12217;50.792;4.372;2023-02-01T04:56:23;22.73;;;4.80;;
24008;SDS011;12217;50.792;4.372;2023-02-01T04:58:48;21.33;;;4.10;;
24008;SDS011;12217;50.792;4.372;2023-02-01T05:01:14;19.15;;;4.45;;
24008;SDS011;12217;50.792;4.372;2023-02-01T05:03:39;24.83;;;5.25;;
24008;SDS011;12217;50.792;4.372;2023-02-01T05:06:05;19.98;;;4.90;;
24008;SDS011;12217;50.792;4.372;2023-02-01T05:08:31;23.75;;;5.10;;
24008;SDS011;12217;50.792;4.372;2023-02-01T05:10:57;23.23;;;4.57;;
24008;SDS011;12217;50.792;4.372;2023-02-01T05:13:24;18.90;;;4.20;;
24008;SDS011;12217;50.792;4.372;2023-02-01T05:16:08;20.58;;;4.45;;
24008;SDS011;12217;50.792;4.372;2023-02-01T05:18:34;23.15;;;4.53;;
24008;SDS011;12217;50.792;4.372;2023-02-01T05:20:59;20.90;;;4.05;;
24008;SDS011;12217;50.792;4.372;2023-02-01T05:23:26;21.95;;;4.45;;
24008;SDS011;12217;50.792;4.372;2023-02-01T05:25:51;22.58;;;4.53;;
24008;SDS011;12217;50.792;4.372;2023-02-01T05:28:17;24.45;;;4.90;;
24008;SDS011;12217;50.792;4.372;2023-02-01T05:30:43;29.10;;;5.20;;
24008;SDS011;12217;50.792;4.372;2023-02-01T05:33:08;21.02;;;4.22;;
24008;SDS011;12217;50.792;4.372;2023-02-01T05:35:34;23.23;;;4.65;;
24008;SDS011;12217;50.792;4.372;2023-02-01T05:37:59;18.00;;;4.55;;
24008;SDS011;12217;50.792;4.372;2023-02-01T05:40:25;18.02;;;3.97;;
24008;SDS011;12217;50.792;4.372;2023-02-01T05:42:51;27.70;;;4.97;;
24008;SDS011;12217;50.792;4.372;2023-02-01T05:45:16;25.90;;;4.45;;
24008;SDS011;12217;50.792;4.372;2023-02-01T05:47:43;18.20;;;4.13;;
24008;SDS011;12217;50.792;4.372;2023-02-01T05:50:09;18.45;;;4.72;;
24008;SDS011;12217;50.792;4.372;2023-02-01T05:52:36;21.52;;;4.63;;
24008;SDS011;12217;50.792;4.372;2023-02-01T05:55:02;22.90;;;5.35;;
24008;SDS011;12217;50.792;4.372;2023-02-01T05:57:29;18.20;;;4.15;;
24008;SDS011;12217;50.792;4.372;2023-02-01T05:59:55;16.02;;;4.95;;
24008;SDS011;12217;50.792;4.372;2023-02-01T06:02:20;19.25;;;4.07;;
24008;SDS011;12217;50.792;4.372;2023-02-01T06:04:46;25.25;;;5.13;;
24008;SDS011;12217;50.792;4.372;2023-02-01T06:07:12;21.55;;;4.88;;
24008;SDS011;12217;50.792;4.372;2023-02-01T06:09:38;21.85;;;5.00;;
24008;SDS011;12217;50.792;4.372;2023-02-01T06:12:03;22.60;;;4.38;;
24008;SDS011;12217;50.792;4.372;2023-02-01T06:14:29;21.25;;;4.60;;
24008;SDS011;12217;50.792;4.372;2023-02-01T06:16:55;27.02;;;5.07;;
24008;SDS011;12217;50.792;4.372;2023-02-01T06:19:21;25.80;;;5.07;;
24008;SDS011;12217;50.792;4.372;2023-02-01T06:21:47;24.48;;;5.05;;
24008;SDS011;12217;50.792;4.372;2023-02-01T06:24:13;26.05;;;4.78;;
24008;SDS011;12217;50.792;4.372;2023-02-01T06:26:38;28.20;;;5.35;;
24008;SDS011;12217;50.792;4.372;2023-02-01T06:29:05;28.30;;;5.38;;
24008;SDS011;12217;50.792;4.372;2023-02-01T06:31:31;25.35;;;5.15;;
24008;SDS011;12217;50.792;4.372;2023-02-01T06:33:57;23.65;;;5.30;;
24008;SDS011;12217;50.792;4.372;2023-02-01T06:36:23;23.65;;;4.68;;
24008;SDS011;12217;50.792;4.372;2023-02-01T06:38:49;23.63;;;5.10;;
24008;SDS011;12217;50.792;4.372;2023-02-01T06:41:15;28.23;;;5.28;;
24008;SDS011;12217;50.792;4.372;2023-02-01T06:43:41;23.80;;;5.00;;
24008;SDS011;12217;50.792;4.372;2023-02-01T06:46:07;27.73;;;5.45;;
24008;SDS011;12217;50.792;4.372;2023-02-01T06:48:36;30.67;;;5.10;;
24008;SDS011;12217;50.792;4.372;2023-02-01T06:51:02;24.15;;;5.00;;
24008;SDS011;12217;50.792;4.372;2023-02-01T06:53:28;24.02;;;5.05;;
24008;SDS011;12217;50.792;4.372;2023-02-01T06:55:55;27.35;;;4.63;;
24008;SDS011;12217;50.792;4.372;2023-02-01T06:58:22;26.83;;;4.95;;
24008;SDS011;12217;50.792;4.372;2023-02-01T07:00:48;29.52;;;4.78;;
24008;SDS011;12217;50.792;4.372;2023-02-01T07:03:14;27.25;;;5.53;;
24008;SDS011;12217;50.792;4.372;2023-02-01T07:05:39;24.55;;;5.75;;
24008;SDS011;12217;50.792;4.372;2023-02-01T07:08:05;24.33;;;5.10;;
24008;SDS011;12217;50.792;4.372;2023-02-01T07:10:32;22.58;;;5.25;;
24008;SDS011;12217;50.792;4.372;2023-02-01T07:12:59;21.38;;;5.25;;
24008;SDS011;12217;50.792;4.372;2023-02-01T07:15:25;24.83;;;5.00;;
24008;SDS011;12217;50.792;4.372;2023-02-01T07:17:50;24.38;;;5.57;;
24008;SDS011;12217;50.792;4.372;2023-02-01T07:20:18;23.38;;;5.35;;
24008;SDS011;12217;50.792;4.372;2023-02-01T07:22:44;23.95;;;5.18;;
24008;SDS011;12217;50.792;4.372;2023-02-01T07:25:10;30.95;;;5.13;;
24008;SDS011;12217;50.792;4.372;2023-02-01T07:27:35;21.00;;;5.25;;
24008;SDS011;12217;50.792;4.372;2023-02-01T07:30:02;25.17;;;5.60;;
24008;SDS011;12217;50.792;4.372;2023-02-01T07:32:29;31.60;;;5.80;;
24008;SDS011;12217;50.792;4.372;2023-02-01T07:34:54;23.08;;;5.18;;
24008;SDS011;12217;50.792;4.372;2023-02-01T07:37:20;27.55;;;5.30;;
24008;SDS011;12217;50.792;4.372;2023-02-01T07:39:46;25.13;;;5.03;;
24008;SDS011;12217;50.792;4.372;2023-02-01T07:42:11;23.15;;;4.93;;
24008;SDS011;12217;50.792;4.372;2023-02-01T07:44:37;26.08;;;4.60;;
24008;SDS011;12217;50.792;4.372;2023-02-01T07:47:03;21.70;;;5.30;;
24008;SDS011;12217;50.792;4.372;2023-02-01T07:49:28;29.45;;;5.15;;
24008;SDS011;12217;50.792;4.372;2023-02-01T07:51:54;24.48;;;4.97;;
24008;SDS011;12217;50.792;4.372;2023-02-01T07:54:19;22.60;;;4.80;;
24008;SDS011;12217;50.792;4.372;2023-02-01T07:56:45;28.17;;;5.43;;
24008;SDS011;12217;50.792;4.372;2023-02-01T07:59:12;23.25;;;5.38;;
24008;SDS011;12217;50.792;4.372;2023-02-01T08:01:37;19.70;;;5.70;;
24008;SDS011;12217;50.792;4.372;2023-02-01T08:04:04;29.40;;;5.07;;
24008;SDS011;12217;50.792;4.372;2023-02-01T08:06:31;30.23;;;5.55;;
24008;SDS011;12217;50.792;4.372;2023-02-01T08:08:58;20.85;;;5.05;;
24008;SDS011;12217;50.792;4.372;2023-02-01T08:11:25;29.73;;;6.13;;
24008;SDS011;12217;50.792;4.372;2023-02-01T08:13:51;18.60;;;5.13;;
24008;SDS011;12217;50.792;4.372;2023-02-01T08:16:18;24.05;;;5.35;;
24008;SDS011;12217;50.792;4.372;2023-02-01T08:18:45;30.50;;;5.55;;
24008;SDS011;12217;50.792;4.372;2023-02-01T08:21:18;25.10;;;5.50;;
24008;SDS011;12217;50.792;4.372;2023-02-01T08:23:47;19.65;;;4.82;;
24008;SDS011;12217;50.792;4.372;2023-02-01T08:26:14;30.48;;;6.38;;
24008;SDS011;12217;50.792;4.372;2023-02-01T08:28:43;22.92;;;5.60;;
24008;SDS011;12217;50.792;4.372;2023-02-01T08:31:13;23.88;;;5.03;;
24008;SDS011;12217;50.792;4.372;2023-02-01T08:33:41;24.73;;;5.05;;
24008;SDS011;12217;50.792;4.372;2023-02-01T08:36:09;26.60;;;5.47;;
24008;SDS011;12217;50.792;4.372;2023-02-01T08:38:35;34.75;;;7.07;;
24008;SDS011;12217;50.792;4.372;2023-02-01T08:41:07;29.73;;;5.45;;
24008;SDS011;12217;50.792;4.372;2023-02-01T08:46:00;28.45;;;5.22;;
24008;SDS011;12217;50.792;4.372;2023-02-01T08:48:26;23.23;;;5.63;;
24008;SDS011;12217;50.792;4.372;2023-02-01T08:50:52;28.50;;;5.28;;
24008;SDS011;12217;50.792;4.372;2023-02-01T08:53:18;25.05;;;5.10;;
24008;SDS011;12217;50.792;4.372;2023-02-01T08:55:45;28.63;;;5.55;;
24008;SDS011;12217;50.792;4.372;2023-02-01T08:58:11;23.38;;;5.22;;
24008;SDS011;12217;50.792;4.372;2023-02-01T09:00:38;27.02;;;5.20;;
24008;SDS011;12217;50.792;4.372;2023-02-01T09:03:05;20.95;;;5.68;;
24008;SDS011;12217;50.792;4.372;2023-02-01T09:05:34;27.75;;;5.68;;
24008;SDS011;12217;50.792;4.372;2023-02-01T09:08:04;32.28;;;6.15;;
24008;SDS011;12217;50.792;4.372;2023-02-01T09:10:40;21.35;;;5.75;;
24008;SDS011;12217;50.792;4.372;2023-02-01T09:13:06;26.45;;;5.93;;
24008;SDS011;12217;50.792;4.372;2023-02-01T09:15:33;29.25;;;6.03;;
24008;SDS011;12217;50.792;4.372;2023-02-01T09:17:59;26.95;;;6.55;;
24008;SDS011;12217;50.792;4.372;2023-02-01T09:20:24;34.28;;;6.07;;
24008;SDS011;12217;50.792;4.372;2023-02-01T09:22:51;27.40;;;5.35;;
24008;SDS011;12217;50.792;4.372;2023-02-01T09:25:17;23.60;;;5.15;;
24008;SDS011;12217;50.792;4.372;2023-02-01T09:27:43;20.02;;;5.25;;
24008;SDS011;12217;50.792;4.372;2023-02-01T09:30:09;22.88;;;5.22;;
24008;SDS011;12217;50.792;4.372;2023-02-01T09:32:35;27.55;;;4.93;;
24008;SDS011;12217;50.792;4.372;2023-02-01T09:35:01;27.35;;;5.40;;
24008;SDS011;12217;50.792;4.372;2023-02-01T09:37:27;24.83;;;5.50;;
24008;SDS011;12217;50.792;4.372;2023-02-01T09:39:52;28.88;;;5.60;;
24008;SDS011;12217;50.792;4.372;2023-02-01T09:48:09;26.02;;;5.35;;
24008;SDS011;12217;50.792;4.372;2023-02-01T09:50:49;19.13;;;4.70;;
24008;SDS011;12217;50.792;4.372;2023-02-01T09:56:05;28.23;;;5.10;;
24008;SDS011;12217;50.792;4.372;2023-02-01T09:58:47;22.90;;;4.93;;
24008;SDS011;12217;50.792;4.372;2023-02-01T10:01:19;29.15;;;5.38;;
24008;SDS011;12217;50.792;4.372;2023-02-01T10:19:34;23.77;;;5.03;;
24008;SDS011;12217;50.792;4.372;2023-02-01T10:22:23;29.05;;;5.15;;
24008;SDS011;12217;50.792;4.372;2023-02-01T10:25:05;28.92;;;4.57;;
24008;SDS011;12217;50.792;4.372;2023-02-01T10:27:44;20.83;;;4.63;;
24008;SDS011;12217;50.792;4.372;2023-02-01T10:30:45;23.02;;;4.93;;
24008;SDS011;12217;50.792;4.372;2023-02-01T10:33:12;22.83;;;4.90;;
24008;SDS011;12217;50.792;4.372;2023-02-01T10:35:46;15.63;;;4.07;;
24008;SDS011;12217;50.792;4.372;2023-02-01T10:38:35;19.40;;;4.63;;
24008;SDS011;12217;50.792;4.372;2023-02-01T10:41:02;20.23;;;4.53;;
24008;SDS011;12217;50.792;4.372;2023-02-01T10:43:36;19.27;;;3.90;;
24008;SDS011;12217;50.792;4.372;2023-02-01T10:46:03;19.48;;;4.63;;
24008;SDS011;12217;50.792;4.372;2023-02-01T10:48:29;16.40;;;3.78;;
24008;SDS011;12217;50.792;4.372;2023-02-01T10:53:34;18.20;;;3.72;;
24008;SDS011;12217;50.792;4.372;2023-02-01T10:56:08;15.80;;;3.80;;
24008;SDS011;12217;50.792;4.372;2023-02-01T10:58:35;21.67;;;4.05;;
24008;SDS011;12217;50.792;4.372;2023-02-01T11:01:07;18.38;;;6.68;;
24008;SDS011;12217;50.792;4.372;2023-02-01T11:03:39;11.68;;;3.60;;
24008;SDS011;12217;50.792;4.372;2023-02-01T11:08:55;15.82;;;3.33;;
24008;SDS011;12217;50.792;4.372;2023-02-01T11:11:23;13.35;;;3.10;;
24008;SDS011;12217;50.792;4.372;2023-02-01T11:13:55;14.77;;;3.20;;
24008;SDS011;12217;50.792;4.372;2023-02-01T11:16:29;16.88;;;3.33;;
24008;SDS011;12217;50.792;4.372;2023-02-01T11:19:01;14.73;;;3.15;;
24008;SDS011;12217;50.792;4.372;2023-02-01T11:21:28;16.65;;;3.42;;
24008;SDS011;12217;50.792;4.372;2023-02-01T11:23:54;19.02;;;3.28;;
24008;SDS011;12217;50.792;4.372;2023-02-01T11:26:24;13.73;;;3.05;;
24008;SDS011;12217;50.792;4.372;2023-02-01T11:28:56;19.00;;;3.78;;
24008;SDS011;12217;50.792;4.372;2023-02-01T11:31:25;12.88;;;3.38;;
24008;SDS011;12217;50.792;4.372;2023-02-01T11:33:53;12.90;;;2.92;;
24008;SDS011;12217;50.792;4.372;2023-02-01T11:36:27;12.68;;;3.13;;
24008;SDS011;12217;50.792;4.372;2023-02-01T11:41:41;13.77;;;2.90;;
24008;SDS011;12217;50.792;4.372;2023-02-01T11:50:15;13.20;;;2.92;;
24008;SDS011;12217;50.792;4.372;2023-02-01T11:58:47;14.02;;;2.92;;
24008;SDS011;12217;50.792;4.372;2023-02-01T12:01:42;12.60;;;2.42;;
24008;SDS011;12217;50.792;4.372;2023-02-01T12:06:54;9.43;;;2.80;;
24008;SDS011;12217;50.792;4.372;2023-02-01T12:12:25;7.22;;;2.15;;
24008;SDS011;12217;50.792;4.372;2023-02-01T12:18:07;9.55;;;2.70;;
24008;SDS011;12217;50.792;4.372;2023-02-01T12:32:06;9.20;;;2.53;;
24008;SDS011;12217;50.792;4.372;2023-02-01T12:34:40;9.02;;;2.30;;
24008;SDS011;12217;50.792;4.372;2023-02-01T12:40:40;6.90;;;2.00;;
24008;SDS011;12217;50.792;4.372;2023-02-01T12:43:18;10.98;;;1.83;;
24008;SDS011;12217;50.792;4.372;2023-02-01T12:45:58;9.00;;;2.28;;
24008;SDS011;12217;50.792;4.372;2023-02-01T12:49:05;7.35;;;1.80;;
24008;SDS011;12217;50.792;4.372;2023-02-01T12:51:28;14.25;;;2.75;;
24008;SDS011;12217;50.792;4.372;2023-02-01T12:59:40;8.57;;;2.45;;
24008;SDS011;12217;50.792;4.372;2023-02-01T13:10:38;7.13;;;2.20;;
24008;SDS011;12217;50.792;4.372;2023-02-01T13:13:14;7.25;;;2.30;;
24008;SDS011;12217;50.792;4.372;2023-02-01T13:16:01;11.55;;;1.77;;
24008;SDS011;12217;50.792;4.372;2023-02-01T13:18:38;9.45;;;2.15;;
24008;SDS011;12217;50.792;4.372;2023-02-01T13:21:22;11.45;;;2.50;;
24008;SDS011;12217;50.792;4.372;2023-02-01T13:23:52;8.32;;;2.17;;
24008;SDS011;12217;50.792;4.372;2023-02-01T13:26:18;10.43;;;2.17;;
24008;SDS011;12217;50.792;4.372;2023-02-01T13:28:46;13.45;;;2.30;;
24008;SDS011;12217;50.792;4.372;2023-02-01T13:37:26;11.43;;;2.42;;
24008;SDS011;12217;50.792;4.372;2023-02-01T13:39:59;10.73;;;2.58;;
24008;SDS011;12217;50.792;4.372;2023-02-01T13:42:48;11.30;;;2.30;;
24008;SDS011;12217;50.792;4.372;2023-02-01T13:47:48;8.05;;;1.85;;
24008;SDS011;12217;50.792;4.372;2023-02-01T13:52:59;13.65;;;2.47;;
24008;SDS011;12217;50.792;4.372;2023-02-01T13:56:15;13.27;;;2.05;;
24008;SDS011;12217;50.792;4.372;2023-02-01T13:58:22;10.45;;;2.47;;
24008;SDS011;12217;50.792;4.372;2023-02-01T14:03:47;10.43;;;2.47;;
24008;SDS011;12217;50.792;4.372;2023-02-01T14:06:17;12.25;;;2.30;;
24008;SDS011;12217;50.792;4.372;2023-02-01T14:09:12;9.05;;;2.30;;
24008;SDS011;12217;50.792;4.372;2023-02-01T14:21:53;9.05;;;2.35;;
24008;SDS011;12217;50.792;4.372;2023-02-01T14:24:32;11.68;;;2.67;;
24008;SDS011;12217;50.792;4.372;2023-02-01T14:27:00;11.45;;;2.50;;
24008;SDS011;12217;50.792;4.372;2023-02-01T14:29:39;13.32;;;2.35;;
24008;SDS011;12217;50.792;4.372;2023-02-01T14:32:16;8.90;;;2.28;;
24008;SDS011;12217;50.792;4.372;2023-02-01T14:42:24;8.70;;;2.50;;
24008;SDS011;12217;50.792;4.372;2023-02-01T14:44:51;16.17;;;2.83;;
24008;SDS011;12217;50.792;4.372;2023-02-01T14:52:36;12.25;;;2.80;;
24008;SDS011;12217;50.792;4.372;2023-02-01T15:01:49;14.50;;;2.53;;
24008;SDS011;12217;50.792;4.372;2023-02-01T15:04:18;14.55;;;2.95;;
24008;SDS011;12217;50.792;4.372;2023-02-01T15:09:24;11.10;;;2.65;;
24008;SDS011;12217;50.792;4.372;2023-02-01T15:11:58;10.38;;;2.42;;
24008;SDS011;12217;50.792;4.372;2023-02-01T15:14:36;14.38;;;2.53;;
24008;SDS011;12217;50.792;4.372;2023-02-01T15:17:17;13.23;;;2.80;;
24008;SDS011;12217;50.792;4.372;2023-02-01T15:19:53;15.75;;;2.97;;
24008;SDS011;12217;50.792;4.372;2023-02-01T15:22:20;14.10;;;2.58;;
24008;SDS011;12217;50.792;4.372;2023-02-01T15:24:51;14.75;;;2.78;;
24008;SDS011;12217;50.792;4.372;2023-02-01T15:27:19;14.20;;;3.22;;
24008;SDS011;12217;50.792;4.372;2023-02-01T15:29:45;14.18;;;3.25;;
24008;SDS011;12217;50.792;4.372;2023-02-01T15:34:57;12.93;;;2.97;;
24008;SDS011;12217;50.792;4.372;2023-02-01T15:37:25;18.05;;;3.90;;
24008;SDS011;12217;50.792;4.372;2023-02-01T15:40:14;14.13;;;3.75;;
24008;SDS011;12217;50.792;4.372;2023-02-01T15:42:51;11.45;;;2.70;;
24008;SDS011;12217;50.792;4.372;2023-02-01T15:45:20;14.77;;;2.97;;
24008;SDS011;12217;50.792;4.372;2023-02-01T15:47:50;12.50;;;3.13;;
24008;SDS011;12217;50.792;4.372;2023-02-01T15:50:18;12.32;;;3.03;;
24008;SDS011;12217;50.792;4.372;2023-02-01T15:52:46;13.48;;;3.00;;
24008;SDS011;12217;50.792;4.372;2023-02-01T15:55:20;14.00;;;3.30;;
24008;SDS011;12217;50.792;4.372;2023-02-01T15:57:47;15.35;;;3.60;;
24008;SDS011;12217;50.792;4.372;2023-02-01T16:00:19;16.35;;;3.30;;
24008;SDS011;12217;50.792;4.372;2023-02-01T16:05:31;17.73;;;4.07;;
24008;SDS011;12217;50.792;4.372;2023-02-01T16:08:13;12.13;;;3.50;;
24008;SDS011;12217;50.792;4.372;2023-02-01T16:10:48;16.50;;;3.30;;
24008;SDS011;12217;50.792;4.372;2023-02-01T16:13:15;12.20;;;2.85;;
24008;SDS011;12217;50.792;4.372;2023-02-01T16:15:42;13.73;;;3.40;;
24008;SDS011;12217;50.792;4.372;2023-02-01T16:18:09;15.10;;;3.10;;
24008;SDS011;12217;50.792;4.372;2023-02-01T16:20:36;18.88;;;3.60;;
24008;SDS011;12217;50.792;4.372;2023-02-01T16:23:03;13.23;;;3.30;;
24008;SDS011;12217;50.792;4.372;2023-02-01T16:25:29;17.42;;;3.55;;
24008;SDS011;12217;50.792;4.372;2023-02-01T16:27:54;16.80;;;3.20;;
24008;SDS011;12217;50.792;4.372;2023-02-01T16:30:20;17.35;;;3.60;;
24008;SDS011;12217;50.792;4.372;2023-02-01T16:32:48;19.45;;;3.28;;
24008;SDS011;12217;50.792;4.372;2023-02-01T16:35:27;18.10;;;3.50;;
24008;SDS011;12217;50.792;4.372;2023-02-01T16:37:56;10.73;;;3.15;;
24008;SDS011;12217;50.792;4.372;2023-02-01T16:40:23;21.88;;;4.03;;
24008;SDS011;12217;50.792;4.372;2023-02-01T16:42:49;16.15;;;3.38;;
24008;SDS011;12217;50.792;4.372;2023-02-01T16:45:17;16.63;;;3.60;;
24008;SDS011;12217;50.792;4.372;2023-02-01T16:47:45;16.48;;;3.70;;
24008;SDS011;12217;50.792;4.372;2023-02-01T16:50:17;20.55;;;3.90;;
24008;SDS011;12217;50.792;4.372;2023-02-01T16:52:45;15.07;;;3.67;;
24008;SDS011;12217;50.792;4.372;2023-02-01T16:55:15;18.73;;;4.50;;
24008;SDS011;12217;50.792;4.372;2023-02-01T16:57:43;17.02;;;4.85;;
24008;SDS011;12217;50.792;4.372;2023-02-01T17:00:10;13.75;;;3.67;;
24008;SDS011;12217;50.792;4.372;2023-02-01T17:02:37;18.48;;;4.80;;
24008;SDS011;12217;50.792;4.372;2023-02-01T17:05:03;15.40;;;4.40;;
24008;SDS011;12217;50.792;4.372;2023-02-01T17:07:30;17.67;;;4.60;;
24008;SDS011;12217;50.792;4.372;2023-02-01T17:09:55;18.23;;;3.97;;
24008;SDS011;12217;50.792;4.372;2023-02-01T17:12:22;16.88;;;3.78;;
24008;SDS011;12217;50.792;4.372;2023-02-01T17:14:53;18.38;;;4.35;;
24008;SDS011;12217;50.792;4.372;2023-02-01T17:17:19;19.27;;;4.60;;
24008;SDS011;12217;50.792;4.372;2023-02-01T17:19:46;20.42;;;5.93;;
24008;SDS011;12217;50.792;4.372;2023-02-01T17:22:17;17.05;;;4.38;;
24008;SDS011;12217;50.792;4.372;2023-02-01T17:24:43;23.10;;;7.15;;
24008;SDS011;12217;50.792;4.372;2023-02-01T17:27:09;22.10;;;5.45;;
24008;SDS011;12217;50.792;4.372;2023-02-01T17:29:35;21.98;;;4.70;;
24008;SDS011;12217;50.792;4.372;2023-02-01T17:32:00;18.10;;;5.13;;
24008;SDS011;12217;50.792;4.372;2023-02-01T17:34:28;20.63;;;4.55;;
24008;SDS011;12217;50.792;4.372;2023-02-01T17:36:53;19.10;;;4.60;;
24008;SDS011;12217;50.792;4.372;2023-02-01T17:39:19;21.42;;;5.60;;
24008;SDS011;12217;50.792;4.372;2023-02-01T17:42:04;20.48;;;6.82;;
24008;SDS011;12217;50.792;4.372;2023-02-01T17:44:33;20.40;;;4.72;;
24008;SDS011;12217;50.792;4.372;2023-02-01T17:46:59;19.52;;;5.32;;
24008;SDS011;12217;50.792;4.372;2023-02-01T17:49:25;20.00;;;5.47;;
24008;SDS011;12217;50.792;4.372;2023-02-01T17:51:55;20.27;;;4.68;;